Terminal Aerodrome Forecast
Issued by NWS

Home | Current Version | Previous Version | Text Only | Print | Product List | Glossary On
Versions: 1 2 3 4 5 6 7 8 9 10 11 12 13 14 15 16 17 18 19 20 21 22 23 24 25 26 27 28
177
FTUS46 KLOX 292320
TAFLAX
TAF
KLAX 292320Z 3000/3106 26012KT P6SM FEW080
     FM300400 25006KT P6SM SKC
     FM300900 VRB03KT 6SM BR BKN009
     FM301200 VRB03KT P6SM OVC012
     FM301630 23006KT 6SM HZ SCT015
     FM302000 26012KT P6SM SCT250
     FM310400 25006KT P6SM SCT010=

USA.gov is the U.S. government's official web portal to all federal, state and local government web resources and services.